Aeroporto :
LOGIN :

Iscrizione | Disclaimer

   EN    FR    IT 

 










Sommario :    VFR   VFR Marginale   IFR   IFR Intensivo   IFR Molto Intensivo
Visibilità : 
Base nubi : 
>= 8 km
>= 3000ft
5 / 8 km
1000 / 3000 ft
1500m / 5 km
500 / 1000 ft
800 / 1500m
200 / 500 ft
< 800m
< 200 ft
Simboli :   Temporali  Nebbia  Neve Forte  Precipitazioni Forti  Vento > 20 kt
SIGMETs :   Varie  Temporali  Ghiacco  Turbolenza  Onda orograficha  Ceneri Vulcaniche







- Altitudine del aeroporto : 265 ft


EPKS - Poznan-Krzesiny

METAR N/A
TAF TAF EPKS
Valido dal 22 a 18 ore il 23 a 03 ore UTC


221700Z 2218/2303 30008KT 8000 BKN007 OVC015
PROB30 2218/2220 VRB15G25KT 3000 SHRA BKN005 BKN015CB
TEMPO 2220/2303 5000 BR BKN005
PROB40 2221/2303 2000 BR MIFG BKN003
Nessun NOTAM noto per questo aeroporto.
1 SIGMET conosciuto per la FIR Warszawa (EPWW) :
 
Linea di groppi
EPWW SIGMET 1 VALID 221540/221940 EPWA
EPWW WARSAW FIR SQL TS OBS LINE N5030 E01750 - N5210 E01720 - N5200 E01720 TOP FL280 MOV SSW INTSF=



MetMap, La meteo Aeronautica in un colpo d'occhio ! - Copyright ORBIFLY Dicembre 2007 - Disclaimer

ORBIFLY MET'MAP TEAM :

Programmazione e sviluppo : Alexandra Zaïnal
Concezione e sviluppo : Baudouin d'Aumeries
Co-Programmazione e sviluppo : Marc-Olivier Méhu
Supporto tecnico e logistico : Manuel Goepfert
Aiuto per la traduzione : Arnaldo La Scala

Contatto : metmap@orbifly.com




FONTI E CREDITI :

   NOAA